sensor_id;sensor_type;location;lat;lon;timestamp;temperature;humidity
66831;DHT22;53739;44.224;22.528;2022-08-24T00:00:30;512.60;2380.80
66831;DHT22;53739;44.224;22.528;2022-08-24T00:03:00;512.70;2380.80
66831;DHT22;53739;44.224;22.528;2022-08-24T00:05:26;512.60;2380.80
66831;DHT22;53739;44.224;22.528;2022-08-24T00:07:54;512.70;2380.80
66831;DHT22;53739;44.224;22.528;2022-08-24T00:10:30;512.70;2380.80
66831;DHT22;53739;44.224;22.528;2022-08-24T00:12:58;512.70;2380.80
66831;DHT22;53739;44.224;22.528;2022-08-24T00:15:27;512.70;2380.80
66831;DHT22;53739;44.224;22.528;2022-08-24T00:17:55;512.70;2380.80
66831;DHT22;53739;44.224;22.528;2022-08-24T00:20:27;512.70;2380.80
66831;DHT22;53739;44.224;22.528;2022-08-24T00:22:59;512.70;2380.80
66831;DHT22;53739;44.224;22.528;2022-08-24T00:25:28;512.60;2252.80
66831;DHT22;53739;44.224;22.528;2022-08-24T00:27:54;512.60;2380.80
66831;DHT22;53739;44.224;22.528;2022-08-24T00:30:43;512.60;2227.20
66831;DHT22;53739;44.224;22.528;2022-08-24T00:33:22;512.60;2355.20
66831;DHT22;53739;44.224;22.528;2022-08-24T00:42:48;512.60;2380.80
66831;DHT22;53739;44.224;22.528;2022-08-24T00:45:25;512.60;2380.80
66831;DHT22;53739;44.224;22.528;2022-08-24T01:32:21;512.60;2380.80
66831;DHT22;53739;44.224;22.528;2022-08-24T01:38:34;512.50;2380.80
66831;DHT22;53739;44.224;22.528;2022-08-24T01:41:08;512.50;2380.80
66831;DHT22;53739;44.224;22.528;2022-08-24T01:43:34;512.50;2355.20
66831;DHT22;53739;44.224;22.528;2022-08-24T01:46:08;512.40;2380.80
66831;DHT22;53739;44.224;22.528;2022-08-24T03:30:46;512.10;2380.80
66831;DHT22;53739;44.224;22.528;2022-08-24T03:33:36;512.00;2380.80
66831;DHT22;53739;44.224;22.528;2022-08-24T03:39:41;512.10;2380.80
66831;DHT22;53739;44.224;22.528;2022-08-24T06:12:07;564.00;2432.00
66831;DHT22;53739;44.224;22.528;2022-08-24T06:14:33;563.90;2432.00
66831;DHT22;53739;44.224;22.528;2022-08-24T06:17:03;563.80;2432.00
66831;DHT22;53739;44.224;22.528;2022-08-24T06:19:29;563.80;2432.00
66831;DHT22;53739;44.224;22.528;2022-08-24T06:21:55;564.00;2432.00
66831;DHT22;53739;44.224;22.528;2022-08-24T06:24:21;564.00;2432.00
66831;DHT22;53739;44.224;22.528;2022-08-24T06:30:07;589.10;2432.00
66831;DHT22;53739;44.224;22.528;2022-08-24T06:35:01;589.70;2432.00
66831;DHT22;53739;44.224;22.528;2022-08-24T06:37:27;614.50;2432.00
66831;DHT22;53739;44.224;22.528;2022-08-24T06:39:54;614.60;2432.00
66831;DHT22;53739;44.224;22.528;2022-08-24T06:42:21;614.50;2432.00
66831;DHT22;53739;44.224;22.528;2022-08-24T06:44:49;614.70;2432.00
66831;DHT22;53739;44.224;22.528;2022-08-24T06:47:15;614.60;2432.00
66831;DHT22;53739;44.224;22.528;2022-08-24T06:49:41;614.80;2432.00
66831;DHT22;53739;44.224;22.528;2022-08-24T06:52:07;614.80;2432.00
66831;DHT22;53739;44.224;22.528;2022-08-24T06:54:35;614.80;2432.00
66831;DHT22;53739;44.224;22.528;2022-08-24T06:57:00;614.80;2432.00
66831;DHT22;53739;44.224;22.528;2022-08-24T06:59:26;614.70;2432.00
66831;DHT22;53739;44.224;22.528;2022-08-24T08:17:57;615.00;2432.00
66831;DHT22;53739;44.224;22.528;2022-08-24T08:22:50;615.30;2432.00
66831;DHT22;53739;44.224;22.528;2022-08-24T08:25:34;615.30;2432.00
66831;DHT22;53739;44.224;22.528;2022-08-24T08:28:04;615.30;2432.00
66831;DHT22;53739;44.224;22.528;2022-08-24T08:30:30;615.30;2432.00
66831;DHT22;53739;44.224;22.528;2022-08-24T08:32:56;615.10;2432.00
66831;DHT22;53739;44.224;22.528;2022-08-24T08:35:22;615.10;2432.00
66831;DHT22;53739;44.224;22.528;2022-08-24T08:37:49;614.90;2432.00
66831;DHT22;53739;44.224;22.528;2022-08-24T08:43:05;614.90;2432.00
66831;DHT22;53739;44.224;22.528;2022-08-24T09:00:15;615.30;2432.00
66831;DHT22;53739;44.224;22.528;2022-08-24T09:03:47;640.00;2432.00
66831;DHT22;53739;44.224;22.528;2022-08-24T09:11:58;640.20;2432.00
66831;DHT22;53739;44.224;22.528;2022-08-24T09:22:39;640.60;2432.00
66831;DHT22;53739;44.224;22.528;2022-08-24T09:28:11;640.60;2432.00
66831;DHT22;53739;44.224;22.528;2022-08-24T09:33:30;640.60;2432.00
66831;DHT22;53739;44.224;22.528;2022-08-24T09:39:06;640.80;2432.00
66831;DHT22;53739;44.224;22.528;2022-08-24T09:50:31;665.60;2432.00
66831;DHT22;53739;44.224;22.528;2022-08-24T10:21:06;666.20;2432.00
66831;DHT22;53739;44.224;22.528;2022-08-24T10:24:06;666.10;2432.00
66831;DHT22;53739;44.224;22.528;2022-08-24T10:33:21;665.70;2432.00
66831;DHT22;53739;44.224;22.528;2022-08-24T10:42:11;665.90;2432.00
66831;DHT22;53739;44.224;22.528;2022-08-24T10:50:52;666.00;2432.00
66831;DHT22;53739;44.224;22.528;2022-08-24T10:53:29;666.10;2432.00
66831;DHT22;53739;44.224;22.528;2022-08-24T10:56:03;666.20;2432.00
66831;DHT22;53739;44.224;22.528;2022-08-24T11:06:18;691.20;2432.00
66831;DHT22;53739;44.224;22.528;2022-08-24T11:08:57;691.20;2432.00
66831;DHT22;53739;44.224;22.528;2022-08-24T11:11:36;691.40;2432.00
66831;DHT22;53739;44.224;22.528;2022-08-24T11:14:26;691.50;2432.00
66831;DHT22;53739;44.224;22.528;2022-08-24T11:17:16;691.60;2432.00
66831;DHT22;53739;44.224;22.528;2022-08-24T11:19:44;691.90;2432.00
66831;DHT22;53739;44.224;22.528;2022-08-24T11:23:01;716.80;2432.00
66831;DHT22;53739;44.224;22.528;2022-08-24T11:25:30;692.10;2432.00
66831;DHT22;53739;44.224;22.528;2022-08-24T11:28:06;716.90;2432.00
66831;DHT22;53739;44.224;22.528;2022-08-24T11:30:39;717.00;2432.00
66831;DHT22;53739;44.224;22.528;2022-08-24T11:33:22;717.10;2432.00
66831;DHT22;53739;44.224;22.528;2022-08-24T11:35:49;717.00;2432.00
66831;DHT22;53739;44.224;22.528;2022-08-24T11:38:21;717.00;2432.00
66831;DHT22;53739;44.224;22.528;2022-08-24T11:40:56;716.90;2432.00
66831;DHT22;53739;44.224;22.528;2022-08-24T11:43:30;717.00;2432.00
66831;DHT22;53739;44.224;22.528;2022-08-24T11:56:36;692.10;2432.00
66831;DHT22;53739;44.224;22.528;2022-08-24T12:01:56;717.30;2432.00
66831;DHT22;53739;44.224;22.528;2022-08-24T16:53:55;666.00;2432.00
66831;DHT22;53739;44.224;22.528;2022-08-24T16:56:21;665.90;2432.00
66831;DHT22;53739;44.224;22.528;2022-08-24T16:58:48;665.90;2432.00
66831;DHT22;53739;44.224;22.528;2022-08-24T17:01:16;665.70;2432.00
66831;DHT22;53739;44.224;22.528;2022-08-24T17:08:40;665.70;2432.00
66831;DHT22;53739;44.224;22.528;2022-08-24T17:11:06;640.90;2432.00
66831;DHT22;53739;44.224;22.528;2022-08-24T17:13:33;640.70;2432.00
66831;DHT22;53739;44.224;22.528;2022-08-24T17:16:01;640.70;2432.00
66831;DHT22;53739;44.224;22.528;2022-08-24T17:18:28;640.70;2432.00
66831;DHT22;53739;44.224;22.528;2022-08-24T17:20:55;640.60;2432.00
66831;DHT22;53739;44.224;22.528;2022-08-24T17:23:21;640.50;2432.00
66831;DHT22;53739;44.224;22.528;2022-08-24T17:25:48;640.50;2432.00
66831;DHT22;53739;44.224;22.528;2022-08-24T17:40:32;640.10;2432.00
66831;DHT22;53739;44.224;22.528;2022-08-24T17:42:59;640.00;2432.00
66831;DHT22;53739;44.224;22.528;2022-08-24T17:45:25;615.30;2432.00
66831;DHT22;53739;44.224;22.528;2022-08-24T17:47:52;615.20;2432.00
66831;DHT22;53739;44.224;22.528;2022-08-24T17:55:16;615.30;2432.00
66831;DHT22;53739;44.224;22.528;2022-08-24T17:57:43;615.10;2432.00
66831;DHT22;53739;44.224;22.528;2022-08-24T18:00:11;614.90;2432.00
66831;DHT22;53739;44.224;22.528;2022-08-24T18:02:39;614.90;2432.00
66831;DHT22;53739;44.224;22.528;2022-08-24T18:05:08;614.80;2432.00
66831;DHT22;53739;44.224;22.528;2022-08-24T18:07:37;614.80;2432.00
66831;DHT22;53739;44.224;22.528;2022-08-24T18:10:08;614.80;2432.00
66831;DHT22;53739;44.224;22.528;2022-08-24T18:12:36;614.80;2432.00
66831;DHT22;53739;44.224;22.528;2022-08-24T18:19:10;614.70;2432.00
66831;DHT22;53739;44.224;22.528;2022-08-24T19:48:24;589.30;2432.00
66831;DHT22;53739;44.224;22.528;2022-08-24T19:51:17;589.30;2432.00
66831;DHT22;53739;44.224;22.528;2022-08-24T19:54:02;589.20;2432.00
66831;DHT22;53739;44.224;22.528;2022-08-24T19:56:45;589.20;2432.00
66831;DHT22;53739;44.224;22.528;2022-08-24T19:59:23;589.10;2432.00
66831;DHT22;53739;44.224;22.528;2022-08-24T20:01:50;589.20;2432.00
66831;DHT22;53739;44.224;22.528;2022-08-24T20:04:23;589.20;2432.00
66831;DHT22;53739;44.224;22.528;2022-08-24T20:09:39;589.20;2432.00
66831;DHT22;53739;44.224;22.528;2022-08-24T20:12:10;589.20;2432.00
66831;DHT22;53739;44.224;22.528;2022-08-24T20:14:46;589.20;2432.00
66831;DHT22;53739;44.224;22.528;2022-08-24T20:17:13;589.20;2432.00
66831;DHT22;53739;44.224;22.528;2022-08-24T20:19:40;589.20;2432.00
66831;DHT22;53739;44.224;22.528;2022-08-24T20:22:07;589.20;2432.00
66831;DHT22;53739;44.224;22.528;2022-08-24T20:24:34;589.10;2432.00
66831;DHT22;53739;44.224;22.528;2022-08-24T20:27:00;589.10;2432.00
66831;DHT22;53739;44.224;22.528;2022-08-24T20:29:26;589.20;2432.00
66831;DHT22;53739;44.224;22.528;2022-08-24T20:31:52;589.20;2432.00
66831;DHT22;53739;44.224;22.528;2022-08-24T20:34:20;589.10;2432.00
66831;DHT22;53739;44.224;22.528;2022-08-24T20:36:48;589.20;2432.00
66831;DHT22;53739;44.224;22.528;2022-08-24T20:39:16;589.20;2432.00
66831;DHT22;53739;44.224;22.528;2022-08-24T20:41:44;589.20;2432.00
66831;DHT22;53739;44.224;22.528;2022-08-24T20:44:10;589.20;2432.00
66831;DHT22;53739;44.224;22.528;2022-08-24T20:46:37;589.20;2432.00
66831;DHT22;53739;44.224;22.528;2022-08-24T20:49:05;589.20;2432.00
66831;DHT22;53739;44.224;22.528;2022-08-24T20:51:31;589.10;2432.00
66831;DHT22;53739;44.224;22.528;2022-08-24T20:53:57;589.10;2432.00
66831;DHT22;53739;44.224;22.528;2022-08-24T20:56:32;589.10;2432.00
66831;DHT22;53739;44.224;22.528;2022-08-24T20:59:05;589.10;2432.00
66831;DHT22;53739;44.224;22.528;2022-08-24T21:01:32;589.00;2432.00
66831;DHT22;53739;44.224;22.528;2022-08-24T21:03:58;589.00;2432.00
66831;DHT22;53739;44.224;22.528;2022-08-24T21:06:23;589.00;2432.00
66831;DHT22;53739;44.224;22.528;2022-08-24T21:08:51;589.00;2432.00
66831;DHT22;53739;44.224;22.528;2022-08-24T21:11:18;589.00;2432.00
66831;DHT22;53739;44.224;22.528;2022-08-24T21:13:44;589.00;2432.00
66831;DHT22;53739;44.224;22.528;2022-08-24T21:16:12;588.90;2432.00
66831;DHT22;53739;44.224;22.528;2022-08-24T21:18:38;588.90;2432.00
66831;DHT22;53739;44.224;22.528;2022-08-24T21:21:04;588.90;2432.00
66831;DHT22;53739;44.224;22.528;2022-08-24T21:23:32;588.90;2432.00
66831;DHT22;53739;44.224;22.528;2022-08-24T21:26:03;588.90;2432.00
66831;DHT22;53739;44.224;22.528;2022-08-24T21:28:29;588.80;2432.00
66831;DHT22;53739;44.224;22.528;2022-08-24T21:30:56;564.10;2432.00
66831;DHT22;53739;44.224;22.528;2022-08-24T21:33:21;564.10;2432.00
66831;DHT22;53739;44.224;22.528;2022-08-24T21:36:06;588.80;2432.00
66831;DHT22;53739;44.224;22.528;2022-08-24T21:38:33;588.80;2432.00
66831;DHT22;53739;44.224;22.528;2022-08-24T21:40:59;588.80;2432.00
66831;DHT22;53739;44.224;22.528;2022-08-24T21:43:25;588.80;2432.00
66831;DHT22;53739;44.224;22.528;2022-08-24T21:45:51;588.80;2432.00
66831;DHT22;53739;44.224;22.528;2022-08-24T21:48:18;588.80;2432.00
66831;DHT22;53739;44.224;22.528;2022-08-24T21:50:44;564.10;2432.00
66831;DHT22;53739;44.224;22.528;2022-08-24T21:53:10;564.10;2432.00
66831;DHT22;53739;44.224;22.528;2022-08-24T21:55:36;564.00;2432.00
66831;DHT22;53739;44.224;22.528;2022-08-24T21:58:06;564.10;2432.00
66831;DHT22;53739;44.224;22.528;2022-08-24T22:00:32;564.10;2432.00
66831;DHT22;53739;44.224;22.528;2022-08-24T22:03:01;564.10;2432.00
66831;DHT22;53739;44.224;22.528;2022-08-24T22:05:28;564.10;2432.00
66831;DHT22;53739;44.224;22.528;2022-08-24T22:07:54;564.00;2432.00
66831;DHT22;53739;44.224;22.528;2022-08-24T22:10:20;564.00;2432.00
66831;DHT22;53739;44.224;22.528;2022-08-24T22:12:46;564.00;2432.00
66831;DHT22;53739;44.224;22.528;2022-08-24T22:15:14;564.00;2432.00
66831;DHT22;53739;44.224;22.528;2022-08-24T22:17:41;563.90;2432.00
66831;DHT22;53739;44.224;22.528;2022-08-24T22:20:08;563.90;2432.00
66831;DHT22;53739;44.224;22.528;2022-08-24T22:22:36;564.00;2432.00
66831;DHT22;53739;44.224;22.528;2022-08-24T22:25:03;563.90;2432.00
66831;DHT22;53739;44.224;22.528;2022-08-24T22:27:29;563.90;2432.00
66831;DHT22;53739;44.224;22.528;2022-08-24T22:29:55;563.90;2432.00
66831;DHT22;53739;44.224;22.528;2022-08-24T22:32:22;563.90;2432.00
66831;DHT22;53739;44.224;22.528;2022-08-24T22:34:49;564.00;2432.00
66831;DHT22;53739;44.224;22.528;2022-08-24T22:37:15;563.90;2432.00
66831;DHT22;53739;44.224;22.528;2022-08-24T22:39:40;563.90;2432.00
66831;DHT22;53739;44.224;22.528;2022-08-24T22:42:07;563.90;2432.00
66831;DHT22;53739;44.224;22.528;2022-08-24T22:44:33;563.80;2432.00
66831;DHT22;53739;44.224;22.528;2022-08-24T22:47:01;563.80;2432.00
66831;DHT22;53739;44.224;22.528;2022-08-24T22:49:35;563.90;2432.00
66831;DHT22;53739;44.224;22.528;2022-08-24T22:52:02;563.90;2432.00
66831;DHT22;53739;44.224;22.528;2022-08-24T22:54:28;563.90;2432.00
66831;DHT22;53739;44.224;22.528;2022-08-24T22:56:55;563.90;2432.00
66831;DHT22;53739;44.224;22.528;2022-08-24T22:59:30;563.90;2432.00
66831;DHT22;53739;44.224;22.528;2022-08-24T23:02:00;563.90;2432.00
66831;DHT22;53739;44.224;22.528;2022-08-24T23:04:31;563.90;2432.00
66831;DHT22;53739;44.224;22.528;2022-08-24T23:06:59;563.90;2432.00
66831;DHT22;53739;44.224;22.528;2022-08-24T23:09:25;563.90;2432.00
66831;DHT22;53739;44.224;22.528;2022-08-24T23:11:51;563.90;2432.00
66831;DHT22;53739;44.224;22.528;2022-08-24T23:14:18;563.90;2432.00
66831;DHT22;53739;44.224;22.528;2022-08-24T23:16:45;563.90;2432.00
66831;DHT22;53739;44.224;22.528;2022-08-24T23:19:20;563.90;2432.00
66831;DHT22;53739;44.224;22.528;2022-08-24T23:22:06;563.90;2432.00
66831;DHT22;53739;44.224;22.528;2022-08-24T23:24:32;563.80;2432.00
66831;DHT22;53739;44.224;22.528;2022-08-24T23:27:00;563.80;2432.00
66831;DHT22;53739;44.224;22.528;2022-08-24T23:29:26;563.80;2432.00
66831;DHT22;53739;44.224;22.528;2022-08-24T23:31:52;563.80;2432.00
66831;DHT22;53739;44.224;22.528;2022-08-24T23:34:19;563.80;2432.00
66831;DHT22;53739;44.224;22.528;2022-08-24T23:36:45;563.80;2432.00
66831;DHT22;53739;44.224;22.528;2022-08-24T23:39:11;563.80;2432.00
66831;DHT22;53739;44.224;22.528;2022-08-24T23:41:40;563.80;2432.00
66831;DHT22;53739;44.224;22.528;2022-08-24T23:44:12;563.80;2432.00
66831;DHT22;53739;44.224;22.528;2022-08-24T23:46:39;563.80;2432.00
66831;DHT22;53739;44.224;22.528;2022-08-24T23:49:05;563.70;2432.00
66831;DHT22;53739;44.224;22.528;2022-08-24T23:51:32;563.80;2432.00
66831;DHT22;53739;44.224;22.528;2022-08-24T23:53:58;563.70;2432.00
66831;DHT22;53739;44.224;22.528;2022-08-24T23:56:30;563.70;2432.00
66831;DHT22;53739;44.224;22.528;2022-08-24T23:58:59;563.80;2432.00
